sensor_id;sensor_type;location;lat;lon;timestamp;pressure;altitude;pressure_sealevel;temperature;humidity
788;BME280;16074;42.708;23.312;2022-12-18T00:00:06;139854.94;;;6.40;100.00
788;BME280;16074;42.708;23.312;2022-12-18T00:02:39;139869.31;;;6.46;100.00
788;BME280;16074;42.708;23.312;2022-12-18T00:05:08;139850.13;;;6.38;100.00
788;BME280;16074;42.708;23.312;2022-12-18T00:07:36;139864.53;;;6.44;100.00
788;BME280;16074;42.708;23.312;2022-12-18T00:10:06;139871.72;;;6.47;100.00
788;BME280;16074;42.708;23.312;2022-12-18T00:12:36;139839.31;;;6.33;100.00
788;BME280;16074;42.708;23.312;2022-12-18T00:15:04;139788.97;;;6.12;100.00
788;BME280;16074;42.708;23.312;2022-12-18T00:17:33;139799.75;;;6.17;100.00
788;BME280;16074;42.708;23.312;2022-12-18T00:20:01;139773.38;;;6.06;100.00
788;BME280;16074;42.708;23.312;2022-12-18T00:22:30;139778.16;;;6.08;100.00
788;BME280;16074;42.708;23.312;2022-12-18T00:24:58;139758.97;;;6.00;100.00
788;BME280;16074;42.708;23.312;2022-12-18T00:27:26;139761.38;;;6.01;100.00
788;BME280;16074;42.708;23.312;2022-12-18T00:29:56;139762.59;;;6.01;100.00
788;BME280;16074;42.708;23.312;2022-12-18T00:32:24;139754.19;;;5.98;100.00
788;BME280;16074;42.708;23.312;2022-12-18T00:34:53;139760.19;;;6.00;100.00
788;BME280;16074;42.708;23.312;2022-12-18T00:37:21;139748.19;;;5.95;100.00
788;BME280;16074;42.708;23.312;2022-12-18T00:39:50;139745.81;;;5.94;100.00
788;BME280;16074;42.708;23.312;2022-12-18T00:42:19;139715.84;;;5.82;100.00
788;BME280;16074;42.708;23.312;2022-12-18T00:45:07;139718.25;;;5.83;100.00
788;BME280;16074;42.708;23.312;2022-12-18T00:47:39;139731.41;;;5.88;100.00
788;BME280;16074;42.708;23.312;2022-12-18T00:50:08;139700.19;;;5.76;100.00
788;BME280;16074;42.708;23.312;2022-12-18T00:52:37;139681.00;;;5.68;100.00
788;BME280;16074;42.708;23.312;2022-12-18T00:55:06;139687.03;;;5.70;100.00
788;BME280;16074;42.708;23.312;2022-12-18T00:57:34;139665.47;;;5.61;100.00
788;BME280;16074;42.708;23.312;2022-12-18T01:00:04;139642.72;;;5.52;100.00
788;BME280;16074;42.708;23.312;2022-12-18T01:02:35;139646.28;;;5.53;100.00
788;BME280;16074;42.708;23.312;2022-12-18T01:05:06;139637.91;;;5.50;100.00
788;BME280;16074;42.708;23.312;2022-12-18T01:07:34;139645.09;;;5.53;100.00
788;BME280;16074;42.708;23.312;2022-12-18T01:10:04;139634.28;;;5.48;100.00
788;BME280;16074;42.708;23.312;2022-12-18T01:12:34;139631.88;;;5.47;100.00
788;BME280;16074;42.708;23.312;2022-12-18T01:15:04;139634.28;;;5.48;100.00
788;BME280;16074;42.708;23.312;2022-12-18T01:17:33;139634.28;;;5.48;100.00
788;BME280;16074;42.708;23.312;2022-12-18T01:20:03;139640.31;;;5.51;100.00
788;BME280;16074;42.708;23.312;2022-12-18T01:22:32;139628.31;;;5.46;100.00
788;BME280;16074;42.708;23.312;2022-12-18T01:25:01;139619.91;;;5.42;100.00
788;BME280;16074;42.708;23.312;2022-12-18T01:27:30;139621.13;;;5.43;100.00
788;BME280;16074;42.708;23.312;2022-12-18T01:29:59;139611.53;;;5.39;100.00
788;BME280;16074;42.708;23.312;2022-12-18T01:32:29;139636.69;;;5.49;100.00
788;BME280;16074;42.708;23.312;2022-12-18T01:34:58;139625.91;;;5.45;100.00
788;BME280;16074;42.708;23.312;2022-12-18T01:37:28;139597.16;;;5.33;100.00
788;BME280;16074;42.708;23.312;2022-12-18T01:39:56;139586.41;;;5.28;100.00
788;BME280;16074;42.708;23.312;2022-12-18T01:42:24;139579.22;;;5.25;100.00
788;BME280;16074;42.708;23.312;2022-12-18T01:44:59;139558.81;;;5.17;100.00
788;BME280;16074;42.708;23.312;2022-12-18T01:47:34;139563.59;;;5.19;100.00
788;BME280;16074;42.708;23.312;2022-12-18T01:50:07;139591.19;;;5.30;100.00
788;BME280;16074;42.708;23.312;2022-12-18T01:52:38;139561.22;;;5.18;100.00
788;BME280;16074;42.708;23.312;2022-12-18T01:55:08;139550.44;;;5.13;100.00
788;BME280;16074;42.708;23.312;2022-12-18T01:57:37;139540.88;;;5.09;100.00
788;BME280;16074;42.708;23.312;2022-12-18T02:00:08;139552.84;;;5.14;100.00
788;BME280;16074;42.708;23.312;2022-12-18T02:02:39;139545.66;;;5.11;100.00
788;BME280;16074;42.708;23.312;2022-12-18T02:05:10;139552.84;;;5.14;100.00
788;BME280;16074;42.708;23.312;2022-12-18T02:07:46;139539.69;;;5.09;100.00
788;BME280;16074;42.708;23.312;2022-12-18T02:10:24;139542.09;;;5.10;100.00
788;BME280;16074;42.708;23.312;2022-12-18T02:13:02;139539.69;;;5.09;100.00
788;BME280;16074;42.708;23.312;2022-12-18T02:15:39;139518.13;;;5.00;100.00
788;BME280;16074;42.708;23.312;2022-12-18T02:18:12;139510.94;;;4.97;100.00
788;BME280;16074;42.708;23.312;2022-12-18T02:20:46;139507.31;;;4.95;100.00
788;BME280;16074;42.708;23.312;2022-12-18T02:23:27;139520.53;;;5.01;100.00
788;BME280;16074;42.708;23.312;2022-12-18T02:26:07;139519.31;;;5.00;100.00
788;BME280;16074;42.708;23.312;2022-12-18T02:28:44;139518.13;;;5.00;100.00
788;BME280;16074;42.708;23.312;2022-12-18T02:31:17;139512.09;;;4.97;100.00
788;BME280;16074;42.708;23.312;2022-12-18T02:33:46;139502.53;;;4.93;100.00
788;BME280;16074;42.708;23.312;2022-12-18T02:36:19;139506.16;;;4.95;100.00
788;BME280;16074;42.708;23.312;2022-12-18T02:38:50;139528.88;;;5.04;100.00
788;BME280;16074;42.708;23.312;2022-12-18T02:41:23;139503.75;;;4.94;100.00
788;BME280;16074;42.708;23.312;2022-12-18T02:43:56;139507.31;;;4.95;100.00
788;BME280;16074;42.708;23.312;2022-12-18T02:46:30;139513.34;;;4.98;100.00
788;BME280;16074;42.708;23.312;2022-12-18T02:49:08;139507.31;;;4.95;100.00
788;BME280;16074;42.708;23.312;2022-12-18T02:51:48;139496.56;;;4.91;100.00
788;BME280;16074;42.708;23.312;2022-12-18T02:54:26;139486.97;;;4.87;100.00
788;BME280;16074;42.708;23.312;2022-12-18T02:57:07;139466.63;;;4.78;100.00
788;BME280;16074;42.708;23.312;2022-12-18T02:59:41;139446.25;;;4.70;100.00
788;BME280;16074;42.708;23.312;2022-12-18T03:02:19;139463.03;;;4.77;100.00
788;BME280;16074;42.708;23.312;2022-12-18T03:04:55;139439.06;;;4.67;100.00
788;BME280;16074;42.708;23.312;2022-12-18T03:07:35;139429.50;;;4.63;100.00
788;BME280;16074;42.708;23.312;2022-12-18T03:10:13;139441.47;;;4.68;100.00
788;BME280;16074;42.708;23.312;2022-12-18T03:12:47;139445.09;;;4.69;100.00
788;BME280;16074;42.708;23.312;2022-12-18T03:15:21;139452.28;;;4.72;100.00
788;BME280;16074;42.708;23.312;2022-12-18T03:18:01;139457.06;;;4.74;100.00
788;BME280;16074;42.708;23.312;2022-12-18T03:20:32;139482.19;;;4.85;100.00
788;BME280;16074;42.708;23.312;2022-12-18T03:23:06;139464.25;;;4.77;100.00
788;BME280;16074;42.708;23.312;2022-12-18T03:25:39;139464.25;;;4.77;100.00
788;BME280;16074;42.708;23.312;2022-12-18T03:28:12;139463.03;;;4.77;100.00
788;BME280;16074;42.708;23.312;2022-12-18T03:30:44;139453.44;;;4.73;100.00
788;BME280;16074;42.708;23.312;2022-12-18T03:33:17;139446.25;;;4.70;100.00
788;BME280;16074;42.708;23.312;2022-12-18T03:35:50;139461.84;;;4.76;100.00
788;BME280;16074;42.708;23.312;2022-12-18T03:38:18;139465.41;;;4.78;100.00
788;BME280;16074;42.708;23.312;2022-12-18T03:40:58;139488.16;;;4.87;100.00
788;BME280;16074;42.708;23.312;2022-12-18T03:43:36;139473.81;;;4.81;100.00
788;BME280;16074;42.708;23.312;2022-12-18T03:46:15;139459.44;;;4.75;100.00
788;BME280;16074;42.708;23.312;2022-12-18T03:48:48;139452.28;;;4.72;100.00
788;BME280;16074;42.708;23.312;2022-12-18T03:51:25;139441.47;;;4.68;100.00
788;BME280;16074;42.708;23.312;2022-12-18T03:53:57;139448.66;;;4.71;100.00
788;BME280;16074;42.708;23.312;2022-12-18T03:56:36;139431.88;;;4.64;100.00
788;BME280;16074;42.708;23.312;2022-12-18T03:59:10;139422.31;;;4.60;100.00
788;BME280;16074;42.708;23.312;2022-12-18T04:01:42;139393.63;;;4.48;100.00
788;BME280;16074;42.708;23.312;2022-12-18T04:04:15;139409.16;;;4.55;100.00
788;BME280;16074;42.708;23.312;2022-12-18T04:06:45;139390.00;;;4.47;100.00
788;BME280;16074;42.708;23.312;2022-12-18T04:09:18;139391.22;;;4.47;100.00
788;BME280;16074;42.708;23.312;2022-12-18T04:11:47;139392.38;;;4.48;100.00
788;BME280;16074;42.708;23.312;2022-12-18T04:14:17;139396.00;;;4.49;100.00
788;BME280;16074;42.708;23.312;2022-12-18T04:16:50;139403.19;;;4.52;100.00
788;BME280;16074;42.708;23.312;2022-12-18T04:19:23;139381.63;;;4.43;100.00
788;BME280;16074;42.708;23.312;2022-12-18T04:21:52;139384.03;;;4.44;100.00
788;BME280;16074;42.708;23.312;2022-12-18T04:24:21;139396.00;;;4.49;100.00
788;BME280;16074;42.708;23.312;2022-12-18T04:27:03;139386.44;;;4.45;100.00
788;BME280;16074;42.708;23.312;2022-12-18T04:29:39;139364.88;;;4.36;100.00
788;BME280;16074;42.708;23.312;2022-12-18T04:32:08;139387.59;;;4.46;100.00
788;BME280;16074;42.708;23.312;2022-12-18T04:34:37;139374.47;;;4.40;100.00
788;BME280;16074;42.708;23.312;2022-12-18T04:37:06;139349.28;;;4.30;100.00
788;BME280;16074;42.708;23.312;2022-12-18T04:39:34;139367.28;;;4.37;100.00
788;BME280;16074;42.708;23.312;2022-12-18T04:42:09;139352.91;;;4.31;100.00
788;BME280;16074;42.708;23.312;2022-12-18T04:44:38;139339.72;;;4.26;100.00
788;BME280;16074;42.708;23.312;2022-12-18T04:47:07;139320.59;;;4.18;100.00
788;BME280;16074;42.708;23.312;2022-12-18T04:49:35;139311.03;;;4.14;100.00
788;BME280;16074;42.708;23.312;2022-12-18T04:52:03;139307.41;;;4.12;100.00
788;BME280;16074;42.708;23.312;2022-12-18T04:54:36;139320.59;;;4.18;100.00
788;BME280;16074;42.708;23.312;2022-12-18T04:57:05;139303.84;;;4.11;100.00
788;BME280;16074;42.708;23.312;2022-12-18T04:59:33;139305.03;;;4.11;100.00
788;BME280;16074;42.708;23.312;2022-12-18T05:02:02;139301.44;;;4.10;100.00
788;BME280;16074;42.708;23.312;2022-12-18T05:04:31;139284.69;;;4.03;100.00
788;BME280;16074;42.708;23.312;2022-12-18T05:06:59;139295.44;;;4.07;100.00
788;BME280;16074;42.708;23.312;2022-12-18T05:09:27;139291.88;;;4.06;100.00
788;BME280;16074;42.708;23.312;2022-12-18T05:11:56;139284.69;;;4.03;100.00
788;BME280;16074;42.708;23.312;2022-12-18T05:14:24;139271.50;;;3.97;100.00
788;BME280;16074;42.708;23.312;2022-12-18T05:16:54;139293.06;;;4.06;100.00
788;BME280;16074;42.708;23.312;2022-12-18T05:19:28;139276.28;;;3.99;100.00
788;BME280;16074;42.708;23.312;2022-12-18T05:21:56;139290.66;;;4.05;100.00
788;BME280;16074;42.708;23.312;2022-12-18T05:24:24;139287.09;;;4.04;100.00
788;BME280;16074;42.708;23.312;2022-12-18T05:26:53;139282.31;;;4.02;100.00
788;BME280;16074;42.708;23.312;2022-12-18T05:29:21;139282.31;;;4.02;100.00
788;BME280;16074;42.708;23.312;2022-12-18T05:31:49;139307.41;;;4.12;100.00
788;BME280;16074;42.708;23.312;2022-12-18T05:34:17;139284.69;;;4.03;100.00
788;BME280;16074;42.708;23.312;2022-12-18T05:36:47;139283.47;;;4.02;100.00
788;BME280;16074;42.708;23.312;2022-12-18T05:39:15;139276.28;;;3.99;100.00
788;BME280;16074;42.708;23.312;2022-12-18T05:41:44;139282.31;;;4.02;100.00
788;BME280;16074;42.708;23.312;2022-12-18T05:44:12;139266.78;;;3.95;100.00
788;BME280;16074;42.708;23.312;2022-12-18T05:46:40;139258.38;;;3.92;100.00
788;BME280;16074;42.708;23.312;2022-12-18T05:49:09;139242.84;;;3.85;100.00
788;BME280;16074;42.708;23.312;2022-12-18T05:51:37;139255.97;;;3.91;100.00
788;BME280;16074;42.708;23.312;2022-12-18T05:54:08;139252.41;;;3.89;100.00
788;BME280;16074;42.708;23.312;2022-12-18T05:56:36;139236.84;;;3.83;100.00
788;BME280;16074;42.708;23.312;2022-12-18T05:59:11;139239.22;;;3.84;100.00
788;BME280;16074;42.708;23.312;2022-12-18T06:01:39;139259.59;;;3.92;100.00
788;BME280;16074;42.708;23.312;2022-12-18T06:04:07;139241.63;;;3.85;100.00
788;BME280;16074;42.708;23.312;2022-12-18T06:06:36;139234.44;;;3.82;100.00
788;BME280;16074;42.708;23.312;2022-12-18T06:09:05;139238.06;;;3.83;100.00
788;BME280;16074;42.708;23.312;2022-12-18T06:11:37;139238.06;;;3.83;100.00
788;BME280;16074;42.708;23.312;2022-12-18T06:14:06;139259.59;;;3.92;100.00
788;BME280;16074;42.708;23.312;2022-12-18T06:16:34;139257.19;;;3.91;100.00
788;BME280;16074;42.708;23.312;2022-12-18T06:19:04;139257.19;;;3.91;100.00
788;BME280;16074;42.708;23.312;2022-12-18T06:21:33;139239.22;;;3.84;100.00
788;BME280;16074;42.708;23.312;2022-12-18T06:24:02;139245.22;;;3.86;100.00
788;BME280;16074;42.708;23.312;2022-12-18T06:26:30;139257.19;;;3.91;100.00
788;BME280;16074;42.708;23.312;2022-12-18T06:29:00;139260.75;;;3.93;100.00
788;BME280;16074;42.708;23.312;2022-12-18T06:31:28;139251.19;;;3.89;100.00
788;BME280;16074;42.708;23.312;2022-12-18T06:33:57;139250.00;;;3.88;100.00
788;BME280;16074;42.708;23.312;2022-12-18T06:36:25;139269.16;;;3.96;100.00
788;BME280;16074;42.708;23.312;2022-12-18T06:38:53;139269.16;;;3.96;100.00
788;BME280;16074;42.708;23.312;2022-12-18T06:41:22;139266.78;;;3.95;100.00
788;BME280;16074;42.708;23.312;2022-12-18T06:43:50;139267.94;;;3.96;100.00
788;BME280;16074;42.708;23.312;2022-12-18T06:46:25;139264.38;;;3.94;100.00
788;BME280;16074;42.708;23.312;2022-12-18T06:48:54;139269.16;;;3.96;100.00
788;BME280;16074;42.708;23.312;2022-12-18T06:51:23;139267.94;;;3.96;100.00
788;BME280;16074;42.708;23.312;2022-12-18T06:53:51;139272.72;;;3.98;100.00
788;BME280;16074;42.708;23.312;2022-12-18T06:56:19;139293.06;;;4.06;100.00
788;BME280;16074;42.708;23.312;2022-12-18T06:58:48;139278.69;;;4.00;100.00
788;BME280;16074;42.708;23.312;2022-12-18T07:01:16;139295.44;;;4.07;100.00
788;BME280;16074;42.708;23.312;2022-12-18T07:03:46;139279.91;;;4.01;100.00
788;BME280;16074;42.708;23.312;2022-12-18T07:06:16;139284.69;;;4.03;100.00
788;BME280;16074;42.708;23.312;2022-12-18T07:08:44;139294.28;;;4.07;100.00
788;BME280;16074;42.708;23.312;2022-12-18T07:11:13;139282.31;;;4.02;100.00
788;BME280;16074;42.708;23.312;2022-12-18T07:13:41;139273.91;;;3.98;100.00
788;BME280;16074;42.708;23.312;2022-12-18T07:16:11;139263.16;;;3.94;100.00
788;BME280;16074;42.708;23.312;2022-12-18T07:18:49;139271.50;;;3.97;100.00
788;BME280;16074;42.708;23.312;2022-12-18T07:21:19;139241.63;;;3.85;100.00
788;BME280;16074;42.708;23.312;2022-12-18T07:23:47;139248.78;;;3.88;100.00
788;BME280;16074;42.708;23.312;2022-12-18T07:26:17;139261.97;;;3.93;100.00
788;BME280;16074;42.708;23.312;2022-12-18T07:28:46;139240.44;;;3.84;100.00
788;BME280;16074;42.708;23.312;2022-12-18T07:31:17;139217.69;;;3.75;100.00
788;BME280;16074;42.708;23.312;2022-12-18T07:33:48;139221.31;;;3.76;100.00
788;BME280;16074;42.708;23.312;2022-12-18T07:36:17;139218.91;;;3.75;100.00
788;BME280;16074;42.708;23.312;2022-12-18T07:38:47;139230.88;;;3.80;100.00
788;BME280;16074;42.708;23.312;2022-12-18T07:41:17;139234.44;;;3.82;100.00
788;BME280;16074;42.708;23.312;2022-12-18T07:43:46;139221.31;;;3.76;100.00
788;BME280;16074;42.708;23.312;2022-12-18T07:46:15;139236.84;;;3.83;100.00
788;BME280;16074;42.708;23.312;2022-12-18T07:48:44;139222.47;;;3.77;100.00
788;BME280;16074;42.708;23.312;2022-12-18T07:51:18;139227.25;;;3.79;100.00
788;BME280;16074;42.708;23.312;2022-12-18T07:53:47;139232.03;;;3.81;100.00
788;BME280;16074;42.708;23.312;2022-12-18T07:56:18;139240.44;;;3.84;100.00
788;BME280;16074;42.708;23.312;2022-12-18T07:58:54;139226.09;;;3.78;100.00
788;BME280;16074;42.708;23.312;2022-12-18T08:01:22;139239.22;;;3.84;100.00
788;BME280;16074;42.708;23.312;2022-12-18T08:03:51;139258.38;;;3.92;100.00
788;BME280;16074;42.708;23.312;2022-12-18T08:06:21;139251.19;;;3.89;100.00
788;BME280;16074;42.708;23.312;2022-12-18T08:08:51;139260.75;;;3.93;100.00
788;BME280;16074;42.708;23.312;2022-12-18T08:11:21;139236.84;;;3.83;100.00
788;BME280;16074;42.708;23.312;2022-12-18T08:13:49;139252.41;;;3.89;100.00
788;BME280;16074;42.708;23.312;2022-12-18T08:16:18;139245.22;;;3.86;100.00
788;BME280;16074;42.708;23.312;2022-12-18T08:18:47;139239.22;;;3.84;100.00
788;BME280;16074;42.708;23.312;2022-12-18T08:21:18;139257.19;;;3.91;100.00
788;BME280;16074;42.708;23.312;2022-12-18T08:23:50;139271.50;;;3.97;100.00
788;BME280;16074;42.708;23.312;2022-12-18T08:26:19;139300.25;;;4.09;100.00
788;BME280;16074;42.708;23.312;2022-12-18T08:28:47;139299.06;;;4.09;100.00
788;BME280;16074;42.708;23.312;2022-12-18T08:31:17;139255.97;;;3.91;100.00
788;BME280;16074;42.708;23.312;2022-12-18T08:33:48;139275.13;;;3.99;100.00
788;BME280;16074;42.708;23.312;2022-12-18T08:36:16;139281.09;;;4.01;100.00
788;BME280;16074;42.708;23.312;2022-12-18T08:38:45;139263.16;;;3.94;100.00
788;BME280;16074;42.708;23.312;2022-12-18T08:41:15;139299.06;;;4.09;100.00
788;BME280;16074;42.708;23.312;2022-12-18T08:43:44;139281.09;;;4.01;100.00
788;BME280;16074;42.708;23.312;2022-12-18T08:46:33;139282.31;;;4.02;100.00
788;BME280;16074;42.708;23.312;2022-12-18T08:49:03;139301.44;;;4.10;100.00
788;BME280;16074;42.708;23.312;2022-12-18T08:51:31;139303.84;;;4.11;100.00
788;BME280;16074;42.708;23.312;2022-12-18T08:54:00;139296.66;;;4.08;100.00
788;BME280;16074;42.708;23.312;2022-12-18T08:56:32;139300.25;;;4.09;100.00
788;BME280;16074;42.708;23.312;2022-12-18T08:59:01;139300.25;;;4.09;100.00
788;BME280;16074;42.708;23.312;2022-12-18T09:01:29;139315.81;;;4.16;100.00
788;BME280;16074;42.708;23.312;2022-12-18T09:03:59;139321.78;;;4.18;100.00
788;BME280;16074;42.708;23.312;2022-12-18T09:06:27;139307.41;;;4.12;100.00
788;BME280;16074;42.708;23.312;2022-12-18T09:08:57;139323.00;;;4.19;100.00
788;BME280;16074;42.708;23.312;2022-12-18T09:11:27;139346.91;;;4.29;99.77
788;BME280;16074;42.708;23.312;2022-12-18T09:13:59;139352.91;;;4.31;98.97
788;BME280;16074;42.708;23.312;2022-12-18T09:16:28;139350.50;;;4.30;98.26
788;BME280;16074;42.708;23.312;2022-12-18T09:18:59;139363.66;;;4.36;97.75
788;BME280;16074;42.708;23.312;2022-12-18T09:21:28;139367.28;;;4.37;96.90
788;BME280;16074;42.708;23.312;2022-12-18T09:23:57;139370.84;;;4.39;96.55
788;BME280;16074;42.708;23.312;2022-12-18T09:26:25;139387.59;;;4.46;95.93
788;BME280;16074;42.708;23.312;2022-12-18T09:28:54;139388.81;;;4.46;94.83
788;BME280;16074;42.708;23.312;2022-12-18T09:31:24;139401.97;;;4.52;93.99
788;BME280;16074;42.708;23.312;2022-12-18T09:33:54;139388.81;;;4.46;94.29
788;BME280;16074;42.708;23.312;2022-12-18T09:36:22;139407.94;;;4.54;93.76
788;BME280;16074;42.708;23.312;2022-12-18T09:38:51;139422.31;;;4.60;94.72
788;BME280;16074;42.708;23.312;2022-12-18T09:41:34;139425.91;;;4.62;94.82
788;BME280;16074;42.708;23.312;2022-12-18T09:44:17;139455.84;;;4.74;94.51
788;BME280;16074;42.708;23.312;2022-12-18T09:46:53;139467.81;;;4.79;94.85
788;BME280;16074;42.708;23.312;2022-12-18T09:49:26;139491.78;;;4.89;93.77
788;BME280;16074;42.708;23.312;2022-12-18T09:51:59;139484.59;;;4.86;92.85
788;BME280;16074;42.708;23.312;2022-12-18T09:54:33;139482.19;;;4.85;92.42
788;BME280;16074;42.708;23.312;2022-12-18T09:57:04;139483.38;;;4.85;90.90
788;BME280;16074;42.708;23.312;2022-12-18T09:59:35;139515.72;;;4.99;90.25
788;BME280;16074;42.708;23.312;2022-12-18T10:02:17;139501.34;;;4.93;89.10
788;BME280;16074;42.708;23.312;2022-12-18T10:04:54;139512.09;;;4.97;88.91
788;BME280;16074;42.708;23.312;2022-12-18T10:07:32;139502.53;;;4.93;90.53
788;BME280;16074;42.708;23.312;2022-12-18T10:10:07;139522.91;;;5.02;90.04
788;BME280;16074;42.708;23.312;2022-12-18T10:12:44;139518.13;;;5.00;89.72
788;BME280;16074;42.708;23.312;2022-12-18T10:15:21;139482.19;;;4.85;89.72
788;BME280;16074;42.708;23.312;2022-12-18T10:17:56;139506.16;;;4.95;90.07
788;BME280;16074;42.708;23.312;2022-12-18T10:20:32;139513.34;;;4.98;89.57
788;BME280;16074;42.708;23.312;2022-12-18T10:23:13;139533.69;;;5.06;89.61
788;BME280;16074;42.708;23.312;2022-12-18T10:25:50;139546.84;;;5.12;89.43
788;BME280;16074;42.708;23.312;2022-12-18T10:28:20;139562.44;;;5.18;89.41
788;BME280;16074;42.708;23.312;2022-12-18T10:30:49;139562.44;;;5.18;88.17
788;BME280;16074;42.708;23.312;2022-12-18T10:33:22;139595.97;;;5.32;88.31
788;BME280;16074;42.708;23.312;2022-12-18T10:35:51;139635.50;;;5.49;87.78
788;BME280;16074;42.708;23.312;2022-12-18T10:38:25;139601.94;;;5.35;88.05
788;BME280;16074;42.708;23.312;2022-12-18T10:40:55;139630.72;;;5.47;87.72
788;BME280;16074;42.708;23.312;2022-12-18T10:43:26;139623.53;;;5.44;87.62
788;BME280;16074;42.708;23.312;2022-12-18T10:48:53;139622.31;;;5.43;86.43
788;BME280;16074;42.708;23.312;2022-12-18T10:51:24;139604.34;;;5.36;87.29
788;BME280;16074;42.708;23.312;2022-12-18T10:53:57;139592.38;;;5.31;87.19
788;BME280;16074;42.708;23.312;2022-12-18T10:56:30;139630.72;;;5.47;87.90
788;BME280;16074;42.708;23.312;2022-12-18T10:59:01;139659.47;;;5.59;87.34
788;BME280;16074;42.708;23.312;2022-12-18T11:01:47;139635.50;;;5.49;87.26
788;BME280;16074;42.708;23.312;2022-12-18T11:04:22;139649.91;;;5.55;86.25
788;BME280;16074;42.708;23.312;2022-12-18T11:06:56;139669.06;;;5.63;86.13
788;BME280;16074;42.708;23.312;2022-12-18T11:09:26;139682.25;;;5.68;85.68
788;BME280;16074;42.708;23.312;2022-12-18T11:11:56;139636.69;;;5.49;84.05
788;BME280;16074;42.708;23.312;2022-12-18T11:14:29;139637.91;;;5.50;84.76
788;BME280;16074;42.708;23.312;2022-12-18T11:16:59;139629.50;;;5.46;84.31
788;BME280;16074;42.708;23.312;2022-12-18T11:19:54;139639.09;;;5.50;86.42
788;BME280;16074;42.708;23.312;2022-12-18T11:22:24;139604.34;;;5.36;85.35
788;BME280;16074;42.708;23.312;2022-12-18T11:24:57;139605.56;;;5.36;85.90
788;BME280;16074;42.708;23.312;2022-12-18T11:27:51;139604.34;;;5.36;86.20
788;BME280;16074;42.708;23.312;2022-12-18T11:30:23;139598.38;;;5.33;86.43
788;BME280;16074;42.708;23.312;2022-12-18T11:32:55;139621.13;;;5.43;87.90
788;BME280;16074;42.708;23.312;2022-12-18T11:35:34;139643.88;;;5.52;86.95
788;BME280;16074;42.708;23.312;2022-12-18T11:38:12;139629.50;;;5.46;86.08
788;BME280;16074;42.708;23.312;2022-12-18T11:40:44;139654.69;;;5.57;86.26
788;BME280;16074;42.708;23.312;2022-12-18T11:43:16;139637.91;;;5.50;85.05
788;BME280;16074;42.708;23.312;2022-12-18T11:45:51;139610.31;;;5.38;84.99
788;BME280;16074;42.708;23.312;2022-12-18T11:48:23;139618.72;;;5.42;84.46
788;BME280;16074;42.708;23.312;2022-12-18T11:50:56;139630.72;;;5.47;85.50
788;BME280;16074;42.708;23.312;2022-12-18T11:53:25;139578.00;;;5.25;84.66
788;BME280;16074;42.708;23.312;2022-12-18T11:56:04;139576.81;;;5.24;85.17
788;BME280;16074;42.708;23.312;2022-12-18T11:58:46;139546.84;;;5.12;85.47
788;BME280;16074;42.708;23.312;2022-12-18T12:01:22;139586.41;;;5.28;86.58
788;BME280;16074;42.708;23.312;2022-12-18T12:04:19;139615.13;;;5.40;86.47
788;BME280;16074;42.708;23.312;2022-12-18T12:07:02;139597.16;;;5.33;85.89
788;BME280;16074;42.708;23.312;2022-12-18T12:09:43;139587.56;;;5.29;85.96
788;BME280;16074;42.708;23.312;2022-12-18T12:12:26;139576.81;;;5.24;86.86
788;BME280;16074;42.708;23.312;2022-12-18T12:15:24;139566.00;;;5.20;86.92
788;BME280;16074;42.708;23.312;2022-12-18T12:17:59;139573.19;;;5.23;86.55
788;BME280;16074;42.708;23.312;2022-12-18T12:20:45;139548.06;;;5.12;86.32
788;BME280;16074;42.708;23.312;2022-12-18T12:23:25;139574.41;;;5.23;86.29
788;BME280;16074;42.708;23.312;2022-12-18T12:26:01;139609.16;;;5.38;86.17
788;BME280;16074;42.708;23.312;2022-12-18T12:28:56;139604.34;;;5.36;86.47
788;BME280;16074;42.708;23.312;2022-12-18T12:31:37;139603.19;;;5.35;86.82
788;BME280;16074;42.708;23.312;2022-12-18T12:34:17;139594.75;;;5.32;86.09
788;BME280;16074;42.708;23.312;2022-12-18T12:36:57;139585.19;;;5.28;86.22
788;BME280;16074;42.708;23.312;2022-12-18T12:39:32;139616.34;;;5.41;86.55
788;BME280;16074;42.708;23.312;2022-12-18T12:42:03;139612.72;;;5.39;86.60
788;BME280;16074;42.708;23.312;2022-12-18T12:44:53;139607.97;;;5.37;86.66
788;BME280;16074;42.708;23.312;2022-12-18T12:47:29;139597.16;;;5.33;87.19
788;BME280;16074;42.708;23.312;2022-12-18T12:50:02;139605.56;;;5.36;87.42
788;BME280;16074;42.708;23.312;2022-12-18T12:52:36;139625.91;;;5.45;87.76
788;BME280;16074;42.708;23.312;2022-12-18T12:55:16;139634.28;;;5.48;87.63
788;BME280;16074;42.708;23.312;2022-12-18T12:57:54;139659.47;;;5.59;87.79
788;BME280;16074;42.708;23.312;2022-12-18T13:00:29;139629.50;;;5.46;85.27
788;BME280;16074;42.708;23.312;2022-12-18T13:03:13;139605.56;;;5.36;85.08
788;BME280;16074;42.708;23.312;2022-12-18T13:05:48;139587.56;;;5.29;84.94
788;BME280;16074;42.708;23.312;2022-12-18T13:08:23;139600.78;;;5.34;84.83
788;BME280;16074;42.708;23.312;2022-12-18T13:10:56;139613.94;;;5.40;85.30
788;BME280;16074;42.708;23.312;2022-12-18T13:13:56;139610.31;;;5.38;85.52
788;BME280;16074;42.708;23.312;2022-12-18T13:16:25;139564.81;;;5.19;86.05
788;BME280;16074;42.708;23.312;2022-12-18T13:18:56;139582.78;;;5.27;86.94
788;BME280;16074;42.708;23.312;2022-12-18T13:21:27;139592.38;;;5.31;86.62
788;BME280;16074;42.708;23.312;2022-12-18T13:24:14;139579.22;;;5.25;87.33
788;BME280;16074;42.708;23.312;2022-12-18T13:26:45;139568.41;;;5.21;87.23
788;BME280;16074;42.708;23.312;2022-12-18T13:29:43;139557.63;;;5.16;87.47
788;BME280;16074;42.708;23.312;2022-12-18T13:32:20;139530.09;;;5.05;87.23